sensor_id;sensor_type;location;lat;lon;timestamp;P1;durP1;ratioP1;P2;durP2;ratioP2
16403;SDS011;8311;50.158;8.642;2023-06-10T00:00:34;6.47;;;5.45;;
16403;SDS011;8311;50.158;8.642;2023-06-10T00:03:28;9.02;;;5.85;;
16403;SDS011;8311;50.158;8.642;2023-06-10T00:06:22;8.65;;;6.40;;
16403;SDS011;8311;50.158;8.642;2023-06-10T00:09:16;8.40;;;6.45;;
16403;SDS011;8311;50.158;8.642;2023-06-10T00:12:10;9.07;;;6.43;;
16403;SDS011;8311;50.158;8.642;2023-06-10T00:15:03;6.63;;;5.53;;
16403;SDS011;8311;50.158;8.642;2023-06-10T00:18:01;8.07;;;6.00;;
16403;SDS011;8311;50.158;8.642;2023-06-10T00:20:55;7.82;;;6.40;;
16403;SDS011;8311;50.158;8.642;2023-06-10T00:23:49;8.27;;;6.57;;
16403;SDS011;8311;50.158;8.642;2023-06-10T00:26:43;7.10;;;6.28;;
16403;SDS011;8311;50.158;8.642;2023-06-10T00:29:38;9.10;;;6.18;;
16403;SDS011;8311;50.158;8.642;2023-06-10T00:32:32;9.25;;;6.20;;
16403;SDS011;8311;50.158;8.642;2023-06-10T00:35:27;7.15;;;6.18;;
16403;SDS011;8311;50.158;8.642;2023-06-10T00:38:20;7.05;;;6.22;;
16403;SDS011;8311;50.158;8.642;2023-06-10T00:41:14;7.45;;;5.85;;
16403;SDS011;8311;50.158;8.642;2023-06-10T00:44:07;9.90;;;6.28;;
16403;SDS011;8311;50.158;8.642;2023-06-10T00:47:00;7.05;;;5.88;;
16403;SDS011;8311;50.158;8.642;2023-06-10T00:49:54;8.05;;;6.30;;
16403;SDS011;8311;50.158;8.642;2023-06-10T00:52:48;9.15;;;5.97;;
16403;SDS011;8311;50.158;8.642;2023-06-10T00:55:46;8.02;;;6.32;;
16403;SDS011;8311;50.158;8.642;2023-06-10T00:58:40;7.55;;;6.28;;
16403;SDS011;8311;50.158;8.642;2023-06-10T01:01:33;7.63;;;6.10;;
16403;SDS011;8311;50.158;8.642;2023-06-10T01:04:29;7.72;;;5.80;;
16403;SDS011;8311;50.158;8.642;2023-06-10T01:07:24;7.32;;;5.78;;
16403;SDS011;8311;50.158;8.642;2023-06-10T01:10:22;8.57;;;5.82;;
16403;SDS011;8311;50.158;8.642;2023-06-10T01:13:31;8.35;;;5.63;;
16403;SDS011;8311;50.158;8.642;2023-06-10T01:16:26;8.13;;;5.53;;
16403;SDS011;8311;50.158;8.642;2023-06-10T01:19:20;7.70;;;5.70;;
16403;SDS011;8311;50.158;8.642;2023-06-10T01:22:16;8.27;;;6.10;;
16403;SDS011;8311;50.158;8.642;2023-06-10T01:25:10;8.98;;;5.90;;
16403;SDS011;8311;50.158;8.642;2023-06-10T01:28:07;9.23;;;6.28;;
16403;SDS011;8311;50.158;8.642;2023-06-10T01:31:06;7.38;;;6.03;;
16403;SDS011;8311;50.158;8.642;2023-06-10T01:34:06;8.98;;;6.18;;
16403;SDS011;8311;50.158;8.642;2023-06-10T01:37:03;8.80;;;5.88;;
16403;SDS011;8311;50.158;8.642;2023-06-10T01:39:59;7.13;;;5.80;;
16403;SDS011;8311;50.158;8.642;2023-06-10T01:42:52;7.90;;;5.25;;
16403;SDS011;8311;50.158;8.642;2023-06-10T01:45:45;7.25;;;5.85;;
16403;SDS011;8311;50.158;8.642;2023-06-10T01:48:40;7.93;;;6.32;;
16403;SDS011;8311;50.158;8.642;2023-06-10T01:51:34;6.63;;;5.68;;
16403;SDS011;8311;50.158;8.642;2023-06-10T01:54:27;7.90;;;6.18;;
16403;SDS011;8311;50.158;8.642;2023-06-10T01:57:22;8.25;;;5.07;;
16403;SDS011;8311;50.158;8.642;2023-06-10T02:00:16;8.13;;;5.78;;
16403;SDS011;8311;50.158;8.642;2023-06-10T02:03:09;8.13;;;5.97;;
16403;SDS011;8311;50.158;8.642;2023-06-10T02:06:02;8.35;;;5.80;;
16403;SDS011;8311;50.158;8.642;2023-06-10T02:08:56;6.93;;;5.97;;
16403;SDS011;8311;50.158;8.642;2023-06-10T02:11:49;9.43;;;6.43;;
16403;SDS011;8311;50.158;8.642;2023-06-10T02:14:43;8.73;;;5.88;;
16403;SDS011;8311;50.158;8.642;2023-06-10T02:17:37;6.80;;;5.93;;
16403;SDS011;8311;50.158;8.642;2023-06-10T02:20:31;7.05;;;5.82;;
16403;SDS011;8311;50.158;8.642;2023-06-10T02:23:24;6.40;;;5.57;;
16403;SDS011;8311;50.158;8.642;2023-06-10T02:26:18;8.35;;;5.13;;
16403;SDS011;8311;50.158;8.642;2023-06-10T02:29:12;9.02;;;6.45;;
16403;SDS011;8311;50.158;8.642;2023-06-10T02:32:08;8.80;;;6.20;;
16403;SDS011;8311;50.158;8.642;2023-06-10T02:35:03;8.02;;;5.78;;
16403;SDS011;8311;50.158;8.642;2023-06-10T02:37:57;6.55;;;5.55;;
16403;SDS011;8311;50.158;8.642;2023-06-10T02:40:51;7.68;;;5.60;;
16403;SDS011;8311;50.158;8.642;2023-06-10T02:43:45;7.90;;;5.90;;
16403;SDS011;8311;50.158;8.642;2023-06-10T02:46:39;8.35;;;6.40;;
16403;SDS011;8311;50.158;8.642;2023-06-10T02:49:33;7.63;;;5.82;;
16403;SDS011;8311;50.158;8.642;2023-06-10T02:52:27;7.57;;;5.68;;
16403;SDS011;8311;50.158;8.642;2023-06-10T02:55:21;9.15;;;6.25;;
16403;SDS011;8311;50.158;8.642;2023-06-10T02:58:18;8.00;;;6.18;;
16403;SDS011;8311;50.158;8.642;2023-06-10T03:01:12;6.90;;;5.55;;
16403;SDS011;8311;50.158;8.642;2023-06-10T03:04:06;7.15;;;5.95;;
16403;SDS011;8311;50.158;8.642;2023-06-10T03:07:02;8.18;;;5.95;;
16403;SDS011;8311;50.158;8.642;2023-06-10T03:09:58;6.90;;;5.75;;
16403;SDS011;8311;50.158;8.642;2023-06-10T03:12:51;8.10;;;6.60;;
16403;SDS011;8311;50.158;8.642;2023-06-10T03:15:44;7.57;;;5.85;;
16403;SDS011;8311;50.158;8.642;2023-06-10T03:18:38;7.40;;;5.68;;
16403;SDS011;8311;50.158;8.642;2023-06-10T03:21:31;7.30;;;5.82;;
16403;SDS011;8311;50.158;8.642;2023-06-10T03:24:25;8.82;;;5.93;;
16403;SDS011;8311;50.158;8.642;2023-06-10T03:27:19;8.63;;;6.20;;
16403;SDS011;8311;50.158;8.642;2023-06-10T03:30:13;8.93;;;6.30;;
16403;SDS011;8311;50.158;8.642;2023-06-10T03:33:08;8.13;;;5.72;;
16403;SDS011;8311;50.158;8.642;2023-06-10T03:36:01;7.82;;;5.60;;
16403;SDS011;8311;50.158;8.642;2023-06-10T03:38:55;7.30;;;5.93;;
16403;SDS011;8311;50.158;8.642;2023-06-10T03:41:51;7.63;;;5.90;;
16403;SDS011;8311;50.158;8.642;2023-06-10T03:44:44;7.05;;;5.97;;
16403;SDS011;8311;50.158;8.642;2023-06-10T03:47:37;7.35;;;6.43;;
16403;SDS011;8311;50.158;8.642;2023-06-10T03:50:33;8.50;;;5.90;;
16403;SDS011;8311;50.158;8.642;2023-06-10T03:53:26;7.53;;;5.40;;
16403;SDS011;8311;50.158;8.642;2023-06-10T03:56:20;7.55;;;6.30;;
16403;SDS011;8311;50.158;8.642;2023-06-10T03:59:15;8.75;;;5.70;;
16403;SDS011;8311;50.158;8.642;2023-06-10T04:02:09;7.72;;;6.03;;
16403;SDS011;8311;50.158;8.642;2023-06-10T04:05:03;8.05;;;5.85;;
16403;SDS011;8311;50.158;8.642;2023-06-10T04:07:57;8.18;;;6.15;;
16403;SDS011;8311;50.158;8.642;2023-06-10T04:10:50;7.07;;;5.78;;
16403;SDS011;8311;50.158;8.642;2023-06-10T04:13:43;8.35;;;6.43;;
16403;SDS011;8311;50.158;8.642;2023-06-10T04:16:38;7.70;;;6.18;;
16403;SDS011;8311;50.158;8.642;2023-06-10T04:19:32;7.45;;;5.47;;
16403;SDS011;8311;50.158;8.642;2023-06-10T04:22:25;7.32;;;5.82;;
16403;SDS011;8311;50.158;8.642;2023-06-10T04:25:18;7.93;;;6.15;;
16403;SDS011;8311;50.158;8.642;2023-06-10T04:28:11;7.22;;;5.97;;
16403;SDS011;8311;50.158;8.642;2023-06-10T04:31:05;9.05;;;6.20;;
16403;SDS011;8311;50.158;8.642;2023-06-10T04:33:59;7.60;;;5.88;;
16403;SDS011;8311;50.158;8.642;2023-06-10T04:36:54;8.05;;;6.38;;
16403;SDS011;8311;50.158;8.642;2023-06-10T04:39:47;7.50;;;5.80;;
16403;SDS011;8311;50.158;8.642;2023-06-10T04:42:41;7.53;;;5.80;;
16403;SDS011;8311;50.158;8.642;2023-06-10T04:45:34;7.82;;;5.97;;
16403;SDS011;8311;50.158;8.642;2023-06-10T04:48:27;7.53;;;5.90;;
16403;SDS011;8311;50.158;8.642;2023-06-10T04:51:22;7.78;;;5.93;;
16403;SDS011;8311;50.158;8.642;2023-06-10T04:54:15;7.05;;;5.75;;
16403;SDS011;8311;50.158;8.642;2023-06-10T04:57:08;6.55;;;5.22;;
16403;SDS011;8311;50.158;8.642;2023-06-10T05:00:03;7.38;;;5.72;;
16403;SDS011;8311;50.158;8.642;2023-06-10T05:02:57;6.65;;;5.68;;
16403;SDS011;8311;50.158;8.642;2023-06-10T05:05:51;7.38;;;5.70;;
16403;SDS011;8311;50.158;8.642;2023-06-10T05:08:46;7.25;;;5.75;;
16403;SDS011;8311;50.158;8.642;2023-06-10T05:11:39;8.65;;;6.07;;
16403;SDS011;8311;50.158;8.642;2023-06-10T05:14:32;7.75;;;5.75;;
16403;SDS011;8311;50.158;8.642;2023-06-10T05:17:25;7.43;;;5.68;;
16403;SDS011;8311;50.158;8.642;2023-06-10T05:20:18;7.03;;;5.43;;
16403;SDS011;8311;50.158;8.642;2023-06-10T05:23:11;6.90;;;5.75;;
16403;SDS011;8311;50.158;8.642;2023-06-10T05:26:06;8.57;;;5.93;;
16403;SDS011;8311;50.158;8.642;2023-06-10T05:29:00;8.00;;;6.10;;
16403;SDS011;8311;50.158;8.642;2023-06-10T05:31:52;6.82;;;5.70;;
16403;SDS011;8311;50.158;8.642;2023-06-10T05:34:48;10.05;;;6.10;;
16403;SDS011;8311;50.158;8.642;2023-06-10T05:37:41;7.88;;;5.60;;
16403;SDS011;8311;50.158;8.642;2023-06-10T05:40:34;7.00;;;5.53;;
16403;SDS011;8311;50.158;8.642;2023-06-10T05:43:28;7.70;;;5.55;;
16403;SDS011;8311;50.158;8.642;2023-06-10T05:46:21;7.43;;;5.72;;
16403;SDS011;8311;50.158;8.642;2023-06-10T05:49:15;8.23;;;5.85;;
16403;SDS011;8311;50.158;8.642;2023-06-10T05:52:08;7.88;;;5.30;;
16403;SDS011;8311;50.158;8.642;2023-06-10T05:55:01;7.68;;;5.65;;
16403;SDS011;8311;50.158;8.642;2023-06-10T05:57:58;6.43;;;5.45;;
16403;SDS011;8311;50.158;8.642;2023-06-10T06:00:54;6.82;;;5.50;;
16403;SDS011;8311;50.158;8.642;2023-06-10T06:03:47;6.40;;;5.38;;
16403;SDS011;8311;50.158;8.642;2023-06-10T06:06:40;8.27;;;5.47;;
16403;SDS011;8311;50.158;8.642;2023-06-10T06:09:33;7.43;;;5.30;;
16403;SDS011;8311;50.158;8.642;2023-06-10T06:12:26;7.93;;;5.18;;
16403;SDS011;8311;50.158;8.642;2023-06-10T06:15:19;8.38;;;5.45;;
16403;SDS011;8311;50.158;8.642;2023-06-10T06:18:14;7.80;;;5.68;;
16403;SDS011;8311;50.158;8.642;2023-06-10T06:21:07;7.28;;;5.15;;
16403;SDS011;8311;50.158;8.642;2023-06-10T06:24:00;6.10;;;4.75;;
16403;SDS011;8311;50.158;8.642;2023-06-10T06:26:53;6.75;;;4.95;;
16403;SDS011;8311;50.158;8.642;2023-06-10T06:29:46;7.68;;;5.32;;
16403;SDS011;8311;50.158;8.642;2023-06-10T06:32:40;8.95;;;5.30;;
16403;SDS011;8311;50.158;8.642;2023-06-10T06:35:34;6.28;;;5.28;;
16403;SDS011;8311;50.158;8.642;2023-06-10T06:38:29;6.78;;;5.30;;
16403;SDS011;8311;50.158;8.642;2023-06-10T06:41:23;6.55;;;5.32;;
16403;SDS011;8311;50.158;8.642;2023-06-10T06:44:16;6.28;;;4.93;;
16403;SDS011;8311;50.158;8.642;2023-06-10T06:47:09;6.97;;;5.30;;
16403;SDS011;8311;50.158;8.642;2023-06-10T06:50:02;6.60;;;5.18;;
16403;SDS011;8311;50.158;8.642;2023-06-10T06:52:57;6.15;;;5.07;;
16403;SDS011;8311;50.158;8.642;2023-06-10T06:55:50;7.05;;;5.05;;
16403;SDS011;8311;50.158;8.642;2023-06-10T06:58:43;7.07;;;5.05;;
16403;SDS011;8311;50.158;8.642;2023-06-10T07:01:36;7.40;;;5.20;;
16403;SDS011;8311;50.158;8.642;2023-06-10T07:04:29;7.45;;;4.63;;
16403;SDS011;8311;50.158;8.642;2023-06-10T07:07:22;7.10;;;4.78;;
16403;SDS011;8311;50.158;8.642;2023-06-10T07:10:17;7.55;;;5.15;;
16403;SDS011;8311;50.158;8.642;2023-06-10T07:13:10;7.80;;;5.25;;
16403;SDS011;8311;50.158;8.642;2023-06-10T07:16:05;7.43;;;4.97;;
16403;SDS011;8311;50.158;8.642;2023-06-10T07:18:58;5.45;;;4.68;;
16403;SDS011;8311;50.158;8.642;2023-06-10T07:21:55;7.45;;;5.22;;
16403;SDS011;8311;50.158;8.642;2023-06-10T07:24:48;6.00;;;4.85;;
16403;SDS011;8311;50.158;8.642;2023-06-10T07:27:45;7.07;;;4.68;;
16403;SDS011;8311;50.158;8.642;2023-06-10T07:30:38;9.02;;;5.75;;
16403;SDS011;8311;50.158;8.642;2023-06-10T07:33:31;8.15;;;5.63;;
16403;SDS011;8311;50.158;8.642;2023-06-10T07:36:24;7.50;;;5.47;;
16403;SDS011;8311;50.158;8.642;2023-06-10T07:39:19;6.32;;;4.93;;
16403;SDS011;8311;50.158;8.642;2023-06-10T07:42:12;7.47;;;5.32;;
16403;SDS011;8311;50.158;8.642;2023-06-10T07:45:07;7.65;;;5.68;;
16403;SDS011;8311;50.158;8.642;2023-06-10T07:48:01;7.85;;;5.47;;
16403;SDS011;8311;50.158;8.642;2023-06-10T07:50:54;8.25;;;5.35;;
16403;SDS011;8311;50.158;8.642;2023-06-10T07:53:47;6.90;;;5.22;;
16403;SDS011;8311;50.158;8.642;2023-06-10T07:56:40;8.95;;;6.05;;
16403;SDS011;8311;50.158;8.642;2023-06-10T07:59:33;6.95;;;5.75;;
16403;SDS011;8311;50.158;8.642;2023-06-10T08:02:28;8.40;;;5.25;;
16403;SDS011;8311;50.158;8.642;2023-06-10T08:05:21;7.68;;;5.40;;
16403;SDS011;8311;50.158;8.642;2023-06-10T08:08:14;7.10;;;5.88;;
16403;SDS011;8311;50.158;8.642;2023-06-10T08:11:07;5.68;;;5.03;;
16403;SDS011;8311;50.158;8.642;2023-06-10T08:14:01;8.05;;;5.72;;
16403;SDS011;8311;50.158;8.642;2023-06-10T08:16:53;7.03;;;5.47;;
16403;SDS011;8311;50.158;8.642;2023-06-10T08:19:48;8.88;;;5.35;;
16403;SDS011;8311;50.158;8.642;2023-06-10T08:22:40;7.35;;;5.13;;
16403;SDS011;8311;50.158;8.642;2023-06-10T08:25:33;7.82;;;5.45;;
16403;SDS011;8311;50.158;8.642;2023-06-10T08:28:26;7.95;;;6.07;;
16403;SDS011;8311;50.158;8.642;2023-06-10T08:31:19;10.65;;;5.97;;
16403;SDS011;8311;50.158;8.642;2023-06-10T08:34:13;7.43;;;5.68;;
16403;SDS011;8311;50.158;8.642;2023-06-10T08:37:08;6.90;;;6.03;;
16403;SDS011;8311;50.158;8.642;2023-06-10T08:40:01;8.25;;;5.47;;
16403;SDS011;8311;50.158;8.642;2023-06-10T08:42:58;7.55;;;5.78;;
16403;SDS011;8311;50.158;8.642;2023-06-10T08:46:00;6.40;;;5.60;;
16403;SDS011;8311;50.158;8.642;2023-06-10T08:48:53;8.18;;;5.57;;
16403;SDS011;8311;50.158;8.642;2023-06-10T08:51:50;7.47;;;5.57;;
16403;SDS011;8311;50.158;8.642;2023-06-10T08:54:46;10.75;;;5.25;;
16403;SDS011;8311;50.158;8.642;2023-06-10T08:57:44;7.72;;;5.78;;
16403;SDS011;8311;50.158;8.642;2023-06-10T09:00:39;6.32;;;5.32;;
16403;SDS011;8311;50.158;8.642;2023-06-10T09:03:34;7.65;;;5.10;;
16403;SDS011;8311;50.158;8.642;2023-06-10T09:06:29;9.23;;;5.68;;
16403;SDS011;8311;50.158;8.642;2023-06-10T09:09:24;10.93;;;5.93;;
16403;SDS011;8311;50.158;8.642;2023-06-10T09:12:20;7.97;;;5.78;;
16403;SDS011;8311;50.158;8.642;2023-06-10T09:15:12;7.90;;;5.97;;
16403;SDS011;8311;50.158;8.642;2023-06-10T09:18:09;9.75;;;5.60;;
16403;SDS011;8311;50.158;8.642;2023-06-10T09:21:03;7.57;;;5.78;;
16403;SDS011;8311;50.158;8.642;2023-06-10T09:23:55;7.82;;;5.93;;
16403;SDS011;8311;50.158;8.642;2023-06-10T09:26:48;8.57;;;5.45;;
16403;SDS011;8311;50.158;8.642;2023-06-10T09:29:47;8.65;;;5.05;;
16403;SDS011;8311;50.158;8.642;2023-06-10T09:32:43;7.55;;;4.78;;
16403;SDS011;8311;50.158;8.642;2023-06-10T09:35:37;7.93;;;5.40;;
16403;SDS011;8311;50.158;8.642;2023-06-10T09:38:39;7.13;;;5.13;;
16403;SDS011;8311;50.158;8.642;2023-06-10T09:41:32;7.32;;;5.32;;
16403;SDS011;8311;50.158;8.642;2023-06-10T09:44:26;7.18;;;5.50;;
16403;SDS011;8311;50.158;8.642;2023-06-10T09:47:21;7.68;;;4.63;;
16403;SDS011;8311;50.158;8.642;2023-06-10T09:50:14;7.47;;;5.22;;
16403;SDS011;8311;50.158;8.642;2023-06-10T09:53:08;6.07;;;4.70;;
16403;SDS011;8311;50.158;8.642;2023-06-10T09:56:03;7.57;;;5.45;;
16403;SDS011;8311;50.158;8.642;2023-06-10T09:59:01;6.57;;;4.95;;
16403;SDS011;8311;50.158;8.642;2023-06-10T10:01:55;11.02;;;5.82;;
16403;SDS011;8311;50.158;8.642;2023-06-10T10:04:50;8.57;;;5.35;;
16403;SDS011;8311;50.158;8.642;2023-06-10T10:07:44;8.95;;;5.88;;
16403;SDS011;8311;50.158;8.642;2023-06-10T10:10:37;8.48;;;4.90;;
16403;SDS011;8311;50.158;8.642;2023-06-10T10:13:30;7.55;;;5.28;;
16403;SDS011;8311;50.158;8.642;2023-06-10T10:16:27;8.57;;;5.45;;
16403;SDS011;8311;50.158;8.642;2023-06-10T10:19:27;8.43;;;4.78;;
16403;SDS011;8311;50.158;8.642;2023-06-10T10:22:25;7.00;;;5.30;;
16403;SDS011;8311;50.158;8.642;2023-06-10T10:25:22;6.90;;;5.10;;
16403;SDS011;8311;50.158;8.642;2023-06-10T10:28:17;7.47;;;5.75;;
16403;SDS011;8311;50.158;8.642;2023-06-10T10:31:15;7.35;;;5.75;;
16403;SDS011;8311;50.158;8.642;2023-06-10T10:34:12;6.05;;;5.03;;
16403;SDS011;8311;50.158;8.642;2023-06-10T10:37:08;8.02;;;5.70;;
16403;SDS011;8311;50.158;8.642;2023-06-10T10:40:03;8.02;;;5.65;;
16403;SDS011;8311;50.158;8.642;2023-06-10T10:42:57;8.43;;;5.25;;
16403;SDS011;8311;50.158;8.642;2023-06-10T10:45:57;7.00;;;5.50;;
16403;SDS011;8311;50.158;8.642;2023-06-10T10:48:52;7.97;;;4.95;;
16403;SDS011;8311;50.158;8.642;2023-06-10T10:51:55;8.35;;;5.55;;
16403;SDS011;8311;50.158;8.642;2023-06-10T10:54:49;6.75;;;4.93;;
16403;SDS011;8311;50.158;8.642;2023-06-10T10:57:54;9.77;;;5.18;;
16403;SDS011;8311;50.158;8.642;2023-06-10T11:00:48;6.22;;;4.82;;
16403;SDS011;8311;50.158;8.642;2023-06-10T11:03:42;6.15;;;4.47;;
16403;SDS011;8311;50.158;8.642;2023-06-10T11:06:37;7.75;;;5.28;;
16403;SDS011;8311;50.158;8.642;2023-06-10T11:09:31;8.05;;;5.07;;
16403;SDS011;8311;50.158;8.642;2023-06-10T11:12:24;7.32;;;5.40;;
16403;SDS011;8311;50.158;8.642;2023-06-10T11:15:19;7.95;;;5.47;;
16403;SDS011;8311;50.158;8.642;2023-06-10T11:18:19;7.22;;;5.10;;
16403;SDS011;8311;50.158;8.642;2023-06-10T11:21:14;5.70;;;4.10;;
16403;SDS011;8311;50.158;8.642;2023-06-10T11:24:13;6.63;;;4.55;;
16403;SDS011;8311;50.158;8.642;2023-06-10T11:27:16;7.38;;;4.97;;
16403;SDS011;8311;50.158;8.642;2023-06-10T11:30:20;6.63;;;4.97;;
16403;SDS011;8311;50.158;8.642;2023-06-10T11:33:18;7.22;;;5.00;;
16403;SDS011;8311;50.158;8.642;2023-06-10T11:36:12;8.23;;;5.20;;
16403;SDS011;8311;50.158;8.642;2023-06-10T11:39:06;5.82;;;4.68;;
16403;SDS011;8311;50.158;8.642;2023-06-10T11:42:00;5.55;;;3.92;;
16403;SDS011;8311;50.158;8.642;2023-06-10T11:44:54;5.95;;;4.57;;
16403;SDS011;8311;50.158;8.642;2023-06-10T11:47:57;5.78;;;4.30;;
16403;SDS011;8311;50.158;8.642;2023-06-10T11:50:52;7.68;;;4.18;;
16403;SDS011;8311;50.158;8.642;2023-06-10T11:53:47;5.35;;;4.35;;
16403;SDS011;8311;50.158;8.642;2023-06-10T11:56:40;6.38;;;4.70;;
16403;SDS011;8311;50.158;8.642;2023-06-10T11:59:34;5.70;;;4.50;;
16403;SDS011;8311;50.158;8.642;2023-06-10T12:02:27;5.85;;;4.30;;
16403;SDS011;8311;50.158;8.642;2023-06-10T12:05:22;6.50;;;3.97;;
16403;SDS011;8311;50.158;8.642;2023-06-10T12:08:14;6.20;;;4.60;;
16403;SDS011;8311;50.158;8.642;2023-06-10T12:11:08;6.20;;;4.63;;
16403;SDS011;8311;50.158;8.642;2023-06-10T12:14:02;6.72;;;4.43;;
16403;SDS011;8311;50.158;8.642;2023-06-10T12:16:56;6.95;;;5.05;;
16403;SDS011;8311;50.158;8.642;2023-06-10T12:19:51;7.25;;;4.75;;
16403;SDS011;8311;50.158;8.642;2023-06-10T12:22:45;7.60;;;4.82;;
16403;SDS011;8311;50.158;8.642;2023-06-10T12:25:39;7.25;;;5.28;;
16403;SDS011;8311;50.158;8.642;2023-06-10T12:28:50;7.47;;;4.78;;
16403;SDS011;8311;50.158;8.642;2023-06-10T12:31:56;9.48;;;4.90;;
16403;SDS011;8311;50.158;8.642;2023-06-10T12:34:54;7.60;;;4.88;;
16403;SDS011;8311;50.158;8.642;2023-06-10T12:37:58;9.30;;;4.63;;
16403;SDS011;8311;50.158;8.642;2023-06-10T12:40:52;8.73;;;5.20;;
16403;SDS011;8311;50.158;8.642;2023-06-10T12:43:48;6.32;;;5.15;;
16403;SDS011;8311;50.158;8.642;2023-06-10T12:46:40;6.32;;;4.43;;
16403;SDS011;8311;50.158;8.642;2023-06-10T12:49:34;6.60;;;4.60;;
16403;SDS011;8311;50.158;8.642;2023-06-10T12:52:28;6.90;;;4.72;;
16403;SDS011;8311;50.158;8.642;2023-06-10T12:55:22;8.38;;;4.88;;
16403;SDS011;8311;50.158;8.642;2023-06-10T12:58:16;7.70;;;4.85;;
16403;SDS011;8311;50.158;8.642;2023-06-10T13:01:09;7.55;;;4.50;;
16403;SDS011;8311;50.158;8.642;2023-06-10T13:04:04;6.70;;;5.03;;
16403;SDS011;8311;50.158;8.642;2023-06-10T13:06:58;7.03;;;5.15;;
16403;SDS011;8311;50.158;8.642;2023-06-10T13:09:51;6.30;;;4.60;;
16403;SDS011;8311;50.158;8.642;2023-06-10T13:12:45;5.80;;;4.10;;
16403;SDS011;8311;50.158;8.642;2023-06-10T13:15:40;6.20;;;4.68;;
16403;SDS011;8311;50.158;8.642;2023-06-10T13:18:35;6.65;;;4.93;;
16403;SDS011;8311;50.158;8.642;2023-06-10T13:21:30;7.07;;;5.07;;
16403;SDS011;8311;50.158;8.642;2023-06-10T13:24:22;9.10;;;5.20;;
16403;SDS011;8311;50.158;8.642;2023-06-10T13:27:16;6.18;;;4.18;;
16403;SDS011;8311;50.158;8.642;2023-06-10T13:30:10;6.90;;;5.10;;
16403;SDS011;8311;50.158;8.642;2023-06-10T13:33:04;9.02;;;4.13;;
16403;SDS011;8311;50.158;8.642;2023-06-10T13:35:57;6.45;;;5.03;;
16403;SDS011;8311;50.158;8.642;2023-06-10T13:38:50;7.45;;;5.10;;
16403;SDS011;8311;50.158;8.642;2023-06-10T13:41:42;8.98;;;5.45;;
16403;SDS011;8311;50.158;8.642;2023-06-10T13:44:36;7.68;;;4.40;;
16403;SDS011;8311;50.158;8.642;2023-06-10T13:47:30;7.05;;;4.68;;
16403;SDS011;8311;50.158;8.642;2023-06-10T13:50:24;7.68;;;5.10;;
16403;SDS011;8311;50.158;8.642;2023-06-10T13:53:17;5.95;;;4.60;;
16403;SDS011;8311;50.158;8.642;2023-06-10T13:56:09;8.95;;;4.90;;
16403;SDS011;8311;50.158;8.642;2023-06-10T13:59:03;6.22;;;4.10;;
16403;SDS011;8311;50.158;8.642;2023-06-10T14:01:56;6.80;;;4.50;;
16403;SDS011;8311;50.158;8.642;2023-06-10T14:04:51;7.82;;;4.50;;
16403;SDS011;8311;50.158;8.642;2023-06-10T14:07:45;6.25;;;3.83;;
16403;SDS011;8311;50.158;8.642;2023-06-10T14:10:38;6.45;;;4.20;;
16403;SDS011;8311;50.158;8.642;2023-06-10T14:13:31;5.60;;;4.07;;
16403;SDS011;8311;50.158;8.642;2023-06-10T14:16:25;6.45;;;4.30;;
16403;SDS011;8311;50.158;8.642;2023-06-10T14:19:18;5.90;;;4.00;;
16403;SDS011;8311;50.158;8.642;2023-06-10T14:22:12;6.03;;;4.00;;
16403;SDS011;8311;50.158;8.642;2023-06-10T14:25:05;7.90;;;4.22;;
16403;SDS011;8311;50.158;8.642;2023-06-10T14:27:59;6.63;;;5.00;;
16403;SDS011;8311;50.158;8.642;2023-06-10T14:30:53;6.05;;;4.30;;
16403;SDS011;8311;50.158;8.642;2023-06-10T14:33:46;6.13;;;4.35;;
16403;SDS011;8311;50.158;8.642;2023-06-10T14:36:39;5.75;;;4.60;;
16403;SDS011;8311;50.158;8.642;2023-06-10T14:39:33;5.55;;;4.32;;
16403;SDS011;8311;50.158;8.642;2023-06-10T14:42:27;5.68;;;4.32;;
16403;SDS011;8311;50.158;8.642;2023-06-10T14:45:20;5.22;;;3.85;;
16403;SDS011;8311;50.158;8.642;2023-06-10T14:48:13;6.38;;;4.20;;
16403;SDS011;8311;50.158;8.642;2023-06-10T14:51:06;5.45;;;3.85;;
16403;SDS011;8311;50.158;8.642;2023-06-10T14:53:59;5.78;;;4.53;;
16403;SDS011;8311;50.158;8.642;2023-06-10T14:56:53;5.82;;;3.97;;
16403;SDS011;8311;50.158;8.642;2023-06-10T14:59:47;5.43;;;3.90;;
16403;SDS011;8311;50.158;8.642;2023-06-10T15:02:40;7.78;;;4.32;;
16403;SDS011;8311;50.158;8.642;2023-06-10T15:05:33;6.60;;;4.25;;
16403;SDS011;8311;50.158;8.642;2023-06-10T15:08:28;5.40;;;4.20;;
16403;SDS011;8311;50.158;8.642;2023-06-10T15:11:22;8.75;;;3.33;;
16403;SDS011;8311;50.158;8.642;2023-06-10T15:14:16;7.13;;;4.35;;
16403;SDS011;8311;50.158;8.642;2023-06-10T15:17:08;6.88;;;4.22;;
16403;SDS011;8311;50.158;8.642;2023-06-10T15:20:02;5.63;;;4.10;;
16403;SDS011;8311;50.158;8.642;2023-06-10T15:22:57;5.78;;;4.10;;
16403;SDS011;8311;50.158;8.642;2023-06-10T15:25:50;5.68;;;4.15;;
16403;SDS011;8311;50.158;8.642;2023-06-10T15:28:43;6.10;;;3.97;;
16403;SDS011;8311;50.158;8.642;2023-06-10T15:31:37;6.30;;;4.05;;
16403;SDS011;8311;50.158;8.642;2023-06-10T15:34:31;5.85;;;4.32;;
16403;SDS011;8311;50.158;8.642;2023-06-10T15:37:25;5.63;;;3.83;;
16403;SDS011;8311;50.158;8.642;2023-06-10T15:40:18;5.57;;;3.80;;
16403;SDS011;8311;50.158;8.642;2023-06-10T15:43:12;5.65;;;4.28;;
16403;SDS011;8311;50.158;8.642;2023-06-10T15:46:05;5.13;;;3.75;;
16403;SDS011;8311;50.158;8.642;2023-06-10T15:48:59;4.93;;;3.78;;
16403;SDS011;8311;50.158;8.642;2023-06-10T15:51:52;5.68;;;4.10;;
16403;SDS011;8311;50.158;8.642;2023-06-10T15:54:46;6.32;;;4.05;;
16403;SDS011;8311;50.158;8.642;2023-06-10T15:57:39;9.55;;;4.70;;
16403;SDS011;8311;50.158;8.642;2023-06-10T16:00:32;5.93;;;3.85;;
16403;SDS011;8311;50.158;8.642;2023-06-10T16:03:25;6.05;;;4.40;;
16403;SDS011;8311;50.158;8.642;2023-06-10T16:06:20;4.78;;;3.55;;
16403;SDS011;8311;50.158;8.642;2023-06-10T16:09:13;4.50;;;3.50;;
16403;SDS011;8311;50.158;8.642;2023-06-10T16:12:06;5.57;;;4.25;;
16403;SDS011;8311;50.158;8.642;2023-06-10T16:15:00;5.38;;;4.00;;
16403;SDS011;8311;50.158;8.642;2023-06-10T16:17:54;5.97;;;4.13;;
16403;SDS011;8311;50.158;8.642;2023-06-10T16:20:50;5.95;;;3.90;;
16403;SDS011;8311;50.158;8.642;2023-06-10T16:23:44;7.70;;;4.65;;
16403;SDS011;8311;50.158;8.642;2023-06-10T16:26:38;5.90;;;4.13;;
16403;SDS011;8311;50.158;8.642;2023-06-10T16:29:31;4.57;;;3.55;;
16403;SDS011;8311;50.158;8.642;2023-06-10T16:32:24;4.80;;;4.03;;
16403;SDS011;8311;50.158;8.642;2023-06-10T16:35:17;6.32;;;4.78;;
16403;SDS011;8311;50.158;8.642;2023-06-10T16:38:10;6.03;;;4.40;;
16403;SDS011;8311;50.158;8.642;2023-06-10T16:41:04;5.65;;;4.28;;
16403;SDS011;8311;50.158;8.642;2023-06-10T16:43:58;6.20;;;4.70;;
16403;SDS011;8311;50.158;8.642;2023-06-10T16:46:55;6.05;;;4.00;;
16403;SDS011;8311;50.158;8.642;2023-06-10T16:49:48;6.78;;;4.30;;
16403;SDS011;8311;50.158;8.642;2023-06-10T16:52:42;6.18;;;4.88;;
16403;SDS011;8311;50.158;8.642;2023-06-10T16:55:35;5.53;;;4.00;;
16403;SDS011;8311;50.158;8.642;2023-06-10T16:58:31;5.82;;;4.10;;
16403;SDS011;8311;50.158;8.642;2023-06-10T17:01:25;6.20;;;3.97;;
16403;SDS011;8311;50.158;8.642;2023-06-10T17:04:19;5.93;;;4.35;;
16403;SDS011;8311;50.158;8.642;2023-06-10T17:07:12;6.38;;;4.68;;
16403;SDS011;8311;50.158;8.642;2023-06-10T17:10:06;5.90;;;4.38;;
16403;SDS011;8311;50.158;8.642;2023-06-10T17:13:00;6.38;;;4.30;;
16403;SDS011;8311;50.158;8.642;2023-06-10T17:15:54;5.82;;;4.53;;
16403;SDS011;8311;50.158;8.642;2023-06-10T17:18:48;5.75;;;4.30;;
16403;SDS011;8311;50.158;8.642;2023-06-10T17:21:41;6.25;;;4.57;;
16403;SDS011;8311;50.158;8.642;2023-06-10T17:24:34;7.30;;;4.68;;
16403;SDS011;8311;50.158;8.642;2023-06-10T17:27:28;6.55;;;4.60;;
16403;SDS011;8311;50.158;8.642;2023-06-10T17:30:21;8.32;;;4.97;;
16403;SDS011;8311;50.158;8.642;2023-06-10T17:33:15;8.63;;;4.80;;
16403;SDS011;8311;50.158;8.642;2023-06-10T17:36:09;7.07;;;5.20;;
16403;SDS011;8311;50.158;8.642;2023-06-10T17:39:02;5.78;;;4.75;;
16403;SDS011;8311;50.158;8.642;2023-06-10T17:41:56;7.18;;;5.13;;
16403;SDS011;8311;50.158;8.642;2023-06-10T17:44:49;7.25;;;5.60;;